Terminal Aerodrome Forecast
Issued by NWS Sioux Falls, SD

Home | Current Version | Previous Version | Graphics & Text | Print | Product List | Glossary Off
Versions: 1 2 3 4 5 6 7 8 9 10 11 12 13 14 15 16

822
FTUS43 KFSD 021720
TAFHON
TAF
KHON 021720Z 0218/0318 35005KT P6SM SCT015 OVC035
      TEMPO 0218/0221 BKN015
     FM022100 29004KT P6SM OVC025
     FM030300 19004KT P6SM OVC015
     FM030900 18004KT P6SM SCT015
     FM031200 17006KT P6SM BKN140
     FM031600 16012KT P6SM BKN035=

USA.gov is the U.S. government's official web portal to all federal, state and local government web resources and services.